Pagina principală
METAR-TAF:

METAR-TAF

Aeroporturi :

Evelyn Sharp Field

Ord, Nebraska, Statele Unite ale Americii

Latitudine: 41-37-27N, longitudine: 098-57-09W, elevație: 631 m

Observații meteo curente

Raportul a fost făcut în urmă cu 16 de minute, la 14:33 UTC
Vânt 11 kt de la Sud/Sud-est cu rafale de până la 23 kt
Temperatură 22°C
Umiditate 83%
Presiune 1010 hPa
Vizibilitate: 16.1 km
Total acoperit la o înălțime de 900 picior

METAR: KODX 151433Z AUTO 16011G23KT 10SM OVC009 22/19 A2983 RMK AO2 CIG 008V012 T02170189

Ora: 09:49 (14:49 UTC)


TAF: lipsă

Observații și prognoze meteo pentru peste 4.000 de aeroporturi (rapoarte METAR și TAF).

Stațiile disponibile sunt reprezentate pe hartă prin puncte galbene și roșii.

Țineți indicatorul mouse-ului pe punctul dorit pentru a vedea denumirea stației.

Apoi, faceți clic pentru a vedea observațiile și prognozele meteorologice.

Pentru a schimba harta: Pentru mărire, faceți clic pe butoanele verzi cu cruce neagră; pentru micșorare, pe butonul verde cu o liniuță; pentru hărți învecinate, pe săgețile verzi.


METAR-TAF: